TimeCDT,TemperatureF,Dew PointF,Humidity,Sea Level PressureIn,VisibilityMPH,Wind Direction,Wind SpeedMPH,Gust SpeedMPH,PrecipitationIn,Events,Conditions,WindDirDegrees,DateUTC
12:13 AM,71.6,68.0,88,29.91,7.0,South,3.5,-,N/A,,Clear,180,2013-08-20 05:13:00
12:33 AM,71.6,66.2,83,29.92,7.0,South,3.5,-,N/A,,Clear,180,2013-08-20 05:33:00
12:54 AM,69.8,66.2,88,29.91,5.0,South,4.6,-,N/A,,Clear,170,2013-08-20 05:54:00
1:13 AM,69.8,66.2,88,29.91,5.0,South,5.8,-,N/A,,Clear,170,2013-08-20 06:13:00
1:33 AM,69.8,66.2,88,29.91,5.0,Calm,Calm,-,N/A,,Clear,0,2013-08-20 06:33:00
1:54 AM,69.8,64.4,83,29.91,5.0,South,3.5,-,N/A,,Clear,170,2013-08-20 06:54:00
2:13 AM,69.8,66.2,88,29.90,5.0,SSE,3.5,-,N/A,,Clear,150,2013-08-20 07:13:00
2:33 AM,69.8,66.2,88,29.90,5.0,Calm,Calm,-,N/A,,Scattered Clouds,0,2013-08-20 07:33:00
2:53 AM,69.8,66.2,88,29.90,5.0,Calm,Calm,-,N/A,,Clear,0,2013-08-20 07:53:00
3:13 AM,68.0,64.4,88,29.90,4.0,Calm,Calm,-,N/A,,Clear,0,2013-08-20 08:13:00
3:33 AM,68.0,64.4,88,29.89,3.0,Calm,Calm,-,N/A,,Clear,0,2013-08-20 08:33:00
3:53 AM,68.0,64.4,88,29.89,3.0,Calm,Calm,-,N/A,,Clear,0,2013-08-20 08:53:00
4:13 AM,68.0,64.4,88,29.89,3.0,Calm,Calm,-,N/A,,Clear,0,2013-08-20 09:13:00
4:33 AM,68.0,64.4,88,29.89,3.0,Calm,Calm,-,N/A,,Clear,0,2013-08-20 09:33:00
4:53 AM,64.4,60.8,88,29.89,3.0,Calm,Calm,-,N/A,,Clear,0,2013-08-20 09:53:00
5:13 AM,64.4,60.8,88,29.89,2.0,Calm,Calm,-,N/A,,Clear,0,2013-08-20 10:13:00
5:34 AM,62.6,60.8,94,29.89,3.0,Calm,Calm,-,N/A,,Clear,0,2013-08-20 10:34:00
5:53 AM,62.6,60.8,94,29.89,1.5,Calm,Calm,-,N/A,,Mist,0,2013-08-20 10:53:00
6:13 AM,62.6,60.8,94,29.89,3.0,Calm,Calm,-,N/A,,Clear,0,2013-08-20 11:13:00
6:34 AM,62.6,60.8,94,29.90,2.5,Calm,Calm,-,N/A,,Clear,0,2013-08-20 11:34:00
6:53 AM,62.6,59.0,88,29.90,1.8,Calm,Calm,-,N/A,,Mist,0,2013-08-20 11:53:00
7:13 AM,62.6,60.8,94,29.90,1.5,Calm,Calm,-,N/A,,Mist,0,2013-08-20 12:13:00
7:34 AM,64.4,62.6,94,29.91,1.5,Calm,Calm,-,N/A,,Mist,0,2013-08-20 12:34:00
7:53 AM,66.2,62.6,88,29.91,2.0,Calm,Calm,-,N/A,,Clear,0,2013-08-20 12:53:00
8:13 AM,68.0,64.4,88,29.92,2.0,Calm,Calm,-,N/A,,Clear,0,2013-08-20 13:13:00
8:34 AM,69.8,66.2,88,29.92,3.0,South,3.5,-,N/A,,Clear,170,2013-08-20 13:34:00
8:53 AM,71.6,68.0,88,29.92,4.0,SSW,3.5,-,N/A,,Clear,200,2013-08-20 13:53:00
9:13 AM,71.6,68.0,88,29.92,4.0,SSW,4.6,-,N/A,,Haze,210,2013-08-20 14:13:00
9:34 AM,73.4,68.0,83,29.92,5.0,Calm,Calm,-,N/A,,Haze,0,2013-08-20 14:34:00
9:53 AM,73.4,68.0,83,29.92,5.0,Calm,Calm,-,N/A,,Haze,0,2013-08-20 14:53:00
10:13 AM,75.2,68.0,78,29.92,5.0,Calm,Calm,-,N/A,,Haze,0,2013-08-20 15:13:00
10:33 AM,77.0,69.8,78,29.92,5.0,SSE,3.5,-,N/A,,Haze,160,2013-08-20 15:33:00
10:53 AM,78.8,69.8,74,29.92,7.0,South,5.8,-,N/A,,Scattered Clouds,170,2013-08-20 15:53:00
11:13 AM,78.8,69.8,74,29.92,7.0,SE,5.8,-,N/A,,Clear,140,2013-08-20 16:13:00
11:33 AM,78.8,69.8,74,29.92,7.0,SSE,6.9,-,N/A,,Clear,150,2013-08-20 16:33:00
11:53 AM,80.6,69.8,70,29.91,7.0,SSE,4.6,-,N/A,,Clear,160,2013-08-20 16:53:00
12:13 PM,82.4,71.6,70,29.91,7.0,SSE,4.6,-,N/A,,Scattered Clouds,160,2013-08-20 17:13:00
12:34 PM,82.4,71.6,70,29.91,10.0,SE,8.1,-,N/A,,Scattered Clouds,140,2013-08-20 17:34:00
12:53 PM,82.4,71.6,70,29.90,10.0,SSW,8.1,-,N/A,,Scattered Clouds,210,2013-08-20 17:53:00
1:13 PM,84.2,71.6,66,29.90,10.0,South,5.8,-,N/A,,Clear,190,2013-08-20 18:13:00
1:34 PM,84.2,71.6,66,29.90,10.0,SSW,8.1,-,N/A,,Scattered Clouds,210,2013-08-20 18:34:00
1:53 PM,86.0,71.6,62,29.90,10.0,SSW,5.8,-,N/A,,Scattered Clouds,210,2013-08-20 18:53:00
2:13 PM,86.0,73.4,66,29.90,10.0,SSW,8.1,-,N/A,,Scattered Clouds,210,2013-08-20 19:13:00
2:33 PM,86.0,73.4,66,29.90,10.0,South,8.1,-,N/A,,Scattered Clouds,180,2013-08-20 19:33:00
2:53 PM,87.8,71.6,58,29.89,10.0,SSW,6.9,-,N/A,,Clear,200,2013-08-20 19:53:00
3:14 PM,87.8,69.8,55,29.89,10.0,SSW,8.1,-,N/A,,Clear,200,2013-08-20 20:14:00
3:33 PM,87.8,69.8,55,29.88,10.0,South,8.1,-,N/A,,Clear,190,2013-08-20 20:33:00
3:53 PM,87.8,69.8,55,29.88,10.0,SSW,6.9,-,N/A,,Clear,200,2013-08-20 20:53:00
4:13 PM,87.8,71.6,58,29.88,10.0,South,6.9,-,N/A,,Clear,180,2013-08-20 21:13:00
4:33 PM,87.8,69.8,55,29.88,10.0,South,9.2,-,N/A,,Clear,180,2013-08-20 21:33:00
4:53 PM,87.8,71.6,58,29.87,10.0,South,8.1,-,N/A,,Clear,170,2013-08-20 21:53:00
5:13 PM,87.8,69.8,55,29.87,10.0,SSW,8.1,-,N/A,,Clear,200,2013-08-20 22:13:00
5:33 PM,87.8,69.8,55,29.87,10.0,South,6.9,-,N/A,,Clear,180,2013-08-20 22:33:00
5:53 PM,86.0,69.8,58,29.87,10.0,South,6.9,-,N/A,,Clear,180,2013-08-20 22:53:00
6:13 PM,86.0,71.6,62,29.87,10.0,South,5.8,-,N/A,,Clear,180,2013-08-20 23:13:00
6:33 PM,86.0,71.6,62,29.88,10.0,South,5.8,-,N/A,,Clear,170,2013-08-20 23:33:00
6:53 PM,86.0,71.6,62,29.88,10.0,South,5.8,-,N/A,,Clear,180,2013-08-20 23:53:00
7:13 PM,84.2,73.4,70,29.87,10.0,South,6.9,-,N/A,,Clear,180,2013-08-21 00:13:00
7:33 PM,82.4,73.4,74,29.87,10.0,South,4.6,-,N/A,,Clear,170,2013-08-21 00:33:00
7:53 PM,80.6,73.4,79,29.87,7.0,South,5.8,-,N/A,,Clear,170,2013-08-21 00:53:00
8:13 PM,80.6,73.4,79,29.88,7.0,Calm,Calm,-,N/A,,Clear,0,2013-08-21 01:13:00
8:33 PM,78.8,73.4,83,29.88,7.0,SSE,3.5,-,N/A,,Clear,160,2013-08-21 01:33:00
8:53 PM,77.0,73.4,89,29.89,5.0,South,3.5,-,N/A,,Clear,170,2013-08-21 01:53:00
9:13 PM,77.0,73.4,89,29.89,7.0,SSE,4.6,-,N/A,,Clear,160,2013-08-21 02:13:00
9:33 PM,77.0,71.6,83,29.90,5.0,South,3.5,-,N/A,,Haze,180,2013-08-21 02:33:00
9:53 PM,77.0,71.6,83,29.90,5.0,South,4.6,-,N/A,,Clear,170,2013-08-21 02:53:00
10:13 PM,75.2,71.6,89,29.90,5.0,SSE,3.5,-,N/A,,Clear,160,2013-08-21 03:13:00
10:33 PM,73.4,71.6,94,29.90,5.0,South,3.5,-,N/A,,Clear,170,2013-08-21 03:33:00
10:53 PM,73.4,71.6,94,29.89,5.0,South,3.5,-,N/A,,Clear,170,2013-08-21 03:53:00
11:13 PM,73.4,71.6,94,29.90,4.0,South,4.6,-,N/A,,Clear,180,2013-08-21 04:13:00
11:33 PM,73.4,71.6,94,29.90,4.0,South,3.5,-,N/A,,Clear,170,2013-08-21 04:33:00
11:53 PM,73.4,69.8,88,29.90,4.0,South,3.5,-,N/A,,Clear,180,2013-08-21 04:53:00